Terminal Aerodrome Forecast
Issued by NWS

Current Version | Previous Version | Text Only | Print | Product List | Glossary On
Versions: 1 2 3 4 5 6 7 8 9 10 11 12 13 14 15 16 17 18 19 20 21 22 23 24 25 26 27 28
000 FTUS41 KBOX 272320 TAFBED TAF KBED 272320Z 2800/2824 VRB03KT P6SM FEW050 FM280600 00000KT 3SM BR BKN015 FM280800 04005KT 3SM -DZ BR OVC003 FM281200 05008KT 2SM -DZ BR OVC008 FM281500 05012G21KT P6SM -DZ OVC008 FM281700 05013G21KT P6SM -DZ BKN015=

USA.gov is the U.S. government's official web portal to all federal, state and local government web resources and services.